Time;durP1;ratioP1;P1;durP2;ratioP2;P2;SDS_P1;SDS_P2;PMS_P1;PMS_P2;Temp;Humidity;BMP_temperature;BMP_pressure;BME280_temperature;BME280_humidity;BME280_pressure;Samples;Min_cycle;Max_cycle;Signal;HPM_P1;HPM_P2
2022/04/21 00:46:15;;;;;;;36.83;33.33;;;;;;;5.48;100.00;101123.66;5018008;27;152171;-80
2022/04/21 00:48:43;;;;;;;37.97;34.47;;;;;;;5.28;100.00;101122.28;5093378;28;20119;-80
2022/04/21 00:51:09;;;;;;;39.92;36.25;;;;;;;5.25;100.00;101107.63;5126770;27;20272;-80
2022/04/21 00:53:38;;;;;;;38.50;34.90;;;;;;;5.12;100.00;101112.53;5060491;28;20047;-82
2022/04/21 00:56:06;;;;;;;40.22;36.53;;;;;;;5.18;100.00;101106.63;5113418;27;20039;-80
2022/04/21 00:58:36;;;;;;;38.30;34.85;;;;;;;5.12;100.00;101117.81;5124471;27;20490;-80
2022/04/21 01:02:46;;;;;;;40.22;36.63;;;;;;;5.08;100.00;101120.91;5128053;27;20474;-79
2022/04/21 01:14:05;;;;;;;43.15;39.22;;;;;;;4.42;100.00;101133.78;5082465;27;149834;-81
2022/04/21 01:16:32;;;;;;;40.40;36.65;;;;;;;4.69;100.00;101129.31;4898466;28;36753;-79
2022/04/21 01:18:59;;;;;;;40.83;37.35;;;;;;;4.59;100.00;101129.41;5051532;28;20055;-80
2022/04/21 01:21:27;;;;;;;40.38;36.83;;;;;;;4.48;100.00;101134.94;5087382;28;20056;-80
2022/04/21 01:23:54;;;;;;;37.95;34.47;;;;;;;4.50;100.00;101135.63;5087406;28;20049;-78
2022/04/21 01:26:21;;;;;;;41.28;37.38;;;;;;;4.47;100.00;101128.03;5087714;28;20400;-81
2022/04/21 01:28:49;;;;;;;41.97;38.08;;;;;;;4.41;100.00;101134.75;5089329;28;20098;-78
2022/04/21 01:31:21;;;;;;;37.35;33.95;;;;;;;4.35;100.00;101127.47;5087474;28;20313;-80
2022/04/21 01:33:50;;;;;;;37.70;34.40;;;;;;;4.06;100.00;101133.06;5088575;28;20097;-80
2022/04/21 01:36:16;;;;;;;39.88;36.28;;;;;;;4.16;100.00;101130.31;5086990;28;20044;-80
2022/04/21 01:41:33;;;;;;;39.70;35.63;;;;;;;4.06;100.00;101133.06;5096834;28;20046;-80
2022/04/21 01:44:00;;;;;;;41.13;37.55;;;;;;;4.00;100.00;101126.59;5029175;28;20528;-80
2022/04/21 01:46:26;;;;;;;43.10;38.85;;;;;;;4.13;100.00;101131.44;5060834;28;20053;-79
2022/04/21 01:48:54;;;;;;;42.53;38.22;;;;;;;3.92;100.00;101137.03;5067393;28;20602;-79
2022/04/21 01:51:21;;;;;;;47.55;42.97;;;;;;;3.82;100.00;101131.88;5066785;28;20570;-80
2022/04/21 01:53:49;;;;;;;53.17;47.40;;;;;;;3.85;100.00;101122.88;5062877;28;20052;-80
2022/04/21 01:56:17;;;;;;;98.35;65.35;;;;;;;3.80;100.00;101127.75;5051211;28;20046;-80
2022/04/21 01:58:45;;;;;;;55.22;47.30;;;;;;;3.44;100.00;101122.50;5061432;28;20140;-79
2022/04/21 02:01:17;;;;;;;58.50;47.10;;;;;;;3.43;100.00;101115.59;5059856;28;20045;-79
2022/04/21 02:03:45;;;;;;;61.95;48.03;;;;;;;3.57;100.00;101119.47;5067826;28;20045;-79
2022/04/21 02:06:14;;;;;;;51.58;43.33;;;;;;;3.39;100.00;101109.81;5069123;28;20053;-78
2022/04/21 02:08:40;;;;;;;51.65;46.05;;;;;;;3.53;100.00;101121.59;5068662;28;20057;-80
2022/04/21 02:11:16;;;;;;;46.45;41.58;;;;;;;3.17;100.00;101125.97;5051058;28;20049;-80
2022/04/21 02:13:46;;;;;;;42.83;38.28;;;;;;;3.13;100.00;101133.34;5067021;28;20084;-81
2022/04/21 02:16:14;;;;;;;48.55;43.40;;;;;;;3.41;100.00;101125.41;5053465;28;20045;-79
2022/04/21 02:18:41;;;;;;;44.58;40.10;;;;;;;3.50;100.00;101127.16;5080434;28;20492;-78
2022/04/21 02:21:09;;;;;;;41.45;37.05;;;;;;;3.14;100.00;101128.91;5084595;28;20486;-77
2022/04/21 02:23:38;;;;;;;40.13;36.22;;;;;;;2.70;100.00;101129.53;5046803;28;20060;-79
2022/04/21 02:26:05;;;;;;;43.85;39.47;;;;;;;2.92;100.00;101128.31;5042109;28;20126;-78
2022/04/21 02:28:33;;;;;;;40.33;36.13;;;;;;;3.06;100.00;101127.03;5047360;28;20098;-81
2022/04/21 02:31:01;;;;;;;48.33;40.83;;;;;;;3.25;100.00;101125.25;5037218;28;20049;-78
2022/04/21 02:33:29;;;;;;;50.42;44.95;;;;;;;3.20;100.00;101131.75;5048434;28;20052;-81
2022/04/21 02:35:58;;;;;;;47.55;40.60;;;;;;;2.91;100.00;101126.69;5035704;28;20049;-77
2022/04/21 02:38:25;;;;;;;48.78;41.38;;;;;;;2.79;100.00;101127.84;5039204;28;20045;-79
2022/04/21 02:40:54;;;;;;;48.45;43.28;;;;;;;3.06;100.00;101116.53;5037469;28;20049;-79
2022/04/21 02:43:21;;;;;;;48.08;42.88;;;;;;;2.94;100.00;101136.88;5047841;28;20110;-79
2022/04/21 02:45:49;;;;;;;48.63;43.22;;;;;;;2.65;100.00;101131.75;5049485;28;20057;-79
2022/04/21 02:48:16;;;;;;;56.50;47.97;;;;;;;2.43;100.00;101130.31;5053645;28;20048;-80
2022/04/21 02:50:48;;;;;;;48.67;43.50;;;;;;;2.23;100.00;101121.66;5041906;28;20108;-80
2022/04/21 02:53:18;;;;;;;43.78;37.90;;;;;;;2.73;100.00;101136.31;5039202;28;20045;-80
2022/04/21 02:58:31;;;;;;;45.28;40.58;;;;;;;2.79;100.00;101146.22;5025438;28;20183;-79
2022/04/21 03:01:02;;;;;;;62.38;48.92;;;;;;;3.20;100.00;101152.75;5043897;28;20057;-80
2022/04/21 03:03:29;;;;;;;47.88;41.67;;;;;;;2.63;100.00;101152.09;5052110;28;20041;-81
2022/04/21 03:05:58;;;;;;;52.63;45.65;;;;;;;2.79;100.00;101148.03;5054271;28;20131;-79
2022/04/21 03:08:25;;;;;;;58.95;45.00;;;;;;;2.74;100.00;101148.44;5041306;28;20107;-80
2022/04/21 03:10:52;;;;;;;49.03;42.03;;;;;;;3.01;100.00;101147.63;5051973;28;20045;-79
2022/04/21 03:13:24;;;;;;;64.32;50.45;;;;;;;2.50;100.00;101149.75;5034712;28;20064;-80
2022/04/21 03:15:52;;;;;;;52.70;43.70;;;;;;;2.78;100.00;101148.97;5042839;28;20056;-78
2022/04/21 03:18:21;;;;;;;59.53;46.38;;;;;;;2.54;100.00;101150.28;5035511;28;20099;-80
2022/04/21 03:26:18;;;;;;;59.80;48.55;;;;;;;2.51;100.00;101155.81;5037838;28;20499;-78
2022/04/21 03:28:45;;;;;;;76.68;60.17;;;;;;;2.66;100.00;101149.16;5042981;28;20052;-79
2022/04/21 03:31:11;;;;;;;59.50;49.05;;;;;;;2.70;100.00;101147.09;5051523;28;20048;-79
2022/04/21 03:33:46;;;;;;;57.53;46.97;;;;;;;2.80;100.00;101149.66;5035880;28;20456;-79
2022/04/21 03:36:15;;;;;;;52.20;44.58;;;;;;;2.80;100.00;101153.09;5037419;28;20071;-80
2022/04/21 03:38:42;;;;;;;48.25;42.92;;;;;;;2.66;100.00;101143.94;5044731;28;20057;-81
2022/04/21 03:41:08;;;;;;;50.70;40.22;;;;;;;2.41;100.00;101141.91;5047287;28;20107;-79
2022/04/21 03:43:35;;;;;;;50.40;43.28;;;;;;;2.43;100.00;101134.75;5043721;28;20053;-78
2022/04/21 03:46:02;;;;;;;45.33;39.65;;;;;;;2.37;100.00;101137.94;5049732;28;20048;-80
2022/04/21 03:48:31;;;;;;;44.35;39.45;;;;;;;2.71;100.00;101136.44;5042417;28;20053;-81
2022/04/21 03:51:00;;;;;;;45.50;40.55;;;;;;;2.48;100.00;101135.13;5053260;28;20045;-79
2022/04/21 03:53:30;;;;;;;44.00;39.20;;;;;;;2.59;100.00;101145.44;5034015;28;20144;-80
2022/04/21 03:55:57;;;;;;;51.03;45.50;;;;;;;2.86;100.00;101143.84;5039332;28;20045;-80
2022/04/21 03:58:24;;;;;;;49.63;44.65;;;;;;;3.07;100.00;101133.91;5038566;28;20046;-80
2022/04/21 04:00:50;;;;;;;50.85;45.65;;;;;;;2.92;100.00;101133.56;5049008;28;20504;-79
2022/04/21 04:03:17;;;;;;;51.58;45.90;;;;;;;2.77;100.00;101126.34;5038373;28;20487;-80
2022/04/21 04:05:45;;;;;;;49.38;44.13;;;;;;;2.84;100.00;101135.28;5033860;28;20057;-80
2022/04/21 04:11:05;;;;;;;61.20;52.05;;;;;;;3.13;100.00;101149.06;5035373;28;20109;-79
2022/04/21 04:13:32;;;;;;;62.40;47.65;;;;;;;3.36;100.00;101143.41;5037840;28;20107;-80
2022/04/21 04:16:00;;;;;;;73.60;49.35;;;;;;;3.40;100.00;101140.34;5041568;28;20053;-80
2022/04/21 04:18:28;;;;;;;75.03;52.95;;;;;;;3.43;100.00;101137.44;5047920;28;20132;-79
2022/04/21 04:20:56;;;;;;;64.75;50.05;;;;;;;3.58;100.00;101137.72;5053516;28;20044;-78
2022/04/21 04:23:25;;;;;;;52.58;43.60;;;;;;;3.81;100.00;101145.16;5049032;28;20053;-80
2022/04/21 04:25:52;;;;;;;49.67;43.03;;;;;;;3.79;100.00;101152.38;5048690;28;20052;-81
2022/04/21 04:28:21;;;;;;;45.20;40.30;;;;;;;4.02;100.00;101145.66;5041137;28;20472;-80
2022/04/21 04:30:50;;;;;;;44.47;39.25;;;;;;;4.13;100.00;101148.03;5048975;28;20057;-80
2022/04/21 04:33:20;;;;;;;40.40;36.25;;;;;;;4.20;100.00;101150.88;5039364;28;20099;-80
2022/04/21 04:35:48;;;;;;;43.65;37.20;;;;;;;4.34;100.00;101150.31;5033454;28;20061;-80
2022/04/21 04:38:16;;;;;;;37.80;34.00;;;;;;;4.44;100.00;101155.47;5035337;28;20110;-79
2022/04/21 04:40:44;;;;;;;36.35;32.60;;;;;;;4.44;100.00;101162.56;5033372;28;20491;-80
2022/04/21 04:43:16;;;;;;;38.97;35.15;;;;;;;4.62;100.00;101141.44;5047963;28;20516;-80
2022/04/21 04:48:29;;;;;;;169.65;92.95;;;;;;;4.79;100.00;101145.81;5047461;28;20102;-81
2022/04/21 04:50:56;;;;;;;343.55;153.13;;;;;;;4.88;100.00;101151.94;5039568;28;20053;-78
2022/04/21 04:53:22;;;;;;;160.32;108.57;;;;;;;5.00;100.00;101148.88;5035131;28;20186;-80
2022/04/21 04:55:51;;;;;;;68.78;52.55;;;;;;;5.15;100.00;101154.34;5041652;28;20044;-80
2022/04/21 04:58:19;;;;;;;534.70;256.35;;;;;;;5.29;100.00;101160.78;5070401;28;20052;-80
2022/04/21 05:00:48;;;;;;;383.00;161.30;;;;;;;5.35;100.00;101157.53;5071231;28;20110;-80
2022/04/21 05:03:18;;;;;;;945.25;491.63;;;;;;;5.51;100.00;101148.84;5066172;28;20448;-80
2022/04/21 05:05:44;;;;;;;164.85;85.13;;;;;;;5.55;100.00;101144.06;5035355;28;20052;-81
2022/04/21 05:08:11;;;;;;;699.88;342.85;;;;;;;5.64;100.00;101143.91;4986963;28;20520;-81
2022/04/21 05:10:39;;;;;;;133.82;74.10;;;;;;;5.80;100.00;101145.72;5057273;28;20164;-80
2022/04/21 05:13:07;;;;;;;179.65;104.95;;;;;;;5.93;100.00;101147.91;5055649;28;22438;-79
2022/04/21 05:15:35;;;;;;;150.63;90.88;;;;;;;6.16;100.00;101140.97;5060923;28;20052;-80
2022/04/21 05:18:03;;;;;;;39.75;36.45;;;;;;;6.22;100.00;101136.03;5032537;28;20064;-80
2022/04/21 05:20:30;;;;;;;46.95;42.80;;;;;;;6.36;100.00;101140.63;5056290;28;20049;-81
2022/04/21 05:23:04;;;;;;;37.40;34.28;;;;;;;6.67;100.00;101139.91;5074515;28;20127;-80
2022/04/21 05:25:33;;;;;;;39.22;36.20;;;;;;;6.71;100.00;101141.19;5064964;28;20123;-78
2022/04/21 05:28:01;;;;;;;36.80;34.00;;;;;;;6.72;100.00;101138.41;5066104;28;20491;-79
2022/04/21 05:33:30;;;;;;;38.17;35.25;;;;;;;7.09;100.00;101140.38;5049966;28;20509;-80
2022/04/21 05:36:00;;;;;;;37.13;34.42;;;;;;;7.17;100.00;101134.25;5056582;28;20040;-80
2022/04/21 05:38:33;;;;;;;36.65;33.95;;;;;;;7.40;100.00;101136.09;5051877;28;20056;-81
2022/04/21 05:41:01;;;;;;;39.97;37.08;;;;;;;7.44;100.00;101129.44;5072749;28;20087;-79
2022/04/21 05:43:38;;;;;;;39.75;36.95;;;;;;;7.55;100.00;101140.44;5075414;28;20048;-79
2022/04/21 05:46:07;;;;;;;38.60;35.88;;;;;;;7.44;100.00;101140.03;5064752;28;20044;-79
2022/04/21 05:48:35;;;;;;;43.13;40.00;;;;;;;7.99;100.00;101136.34;5067059;28;20044;-79
2022/04/21 05:51:02;;;;;;;39.83;36.92;;;;;;;8.08;100.00;101140.56;5064240;28;20048;-81
2022/04/21 05:53:32;;;;;;;39.17;36.38;;;;;;;8.23;100.00;101140.59;5066289;28;20040;-78
2022/04/21 05:55:59;;;;;;;37.38;34.80;;;;;;;8.23;100.00;101143.22;5080438;28;20559;-78
2022/04/21 05:58:26;;;;;;;38.28;35.67;;;;;;;7.91;100.00;101141.69;5070545;28;20036;-80
2022/04/21 06:00:53;;;;;;;37.50;34.72;;;;;;;8.79;100.00;101143.63;5061047;28;20119;-79
2022/04/21 06:03:22;;;;;;;35.33;32.92;;;;;;;8.91;100.00;101138.69;5071929;28;20499;-78
2022/04/21 06:05:49;;;;;;;37.08;34.67;;;;;;;8.46;100.00;101135.25;5079512;28;20044;-78
2022/04/21 06:08:15;;;;;;;35.85;33.55;;;;;;;8.74;100.00;101142.53;5080743;28;20139;-79
2022/04/21 06:10:42;;;;;;;39.75;37.08;;;;;;;9.00;100.00;101150.84;5070926;28;20045;-79
2022/04/21 06:13:09;;;;;;;37.10;34.55;;;;;;;8.59;100.00;101151.31;5071802;28;20067;-80
2022/04/21 06:15:36;;;;;;;36.42;34.00;;;;;;;8.53;100.00;101153.84;5072203;28;20400;-79
2022/04/21 06:18:03;;;;;;;38.40;35.90;;;;;;;8.60;100.00;101152.97;5071280;28;20392;-79
2022/04/21 06:20:31;;;;;;;38.38;35.83;;;;;;;8.65;100.00;101160.34;5074037;28;20045;-78
2022/04/21 06:22:58;;;;;;;37.22;34.92;;;;;;;8.73;100.00;101149.66;5070497;28;20048;-80
2022/04/21 06:25:25;;;;;;;38.67;36.13;;;;;;;8.60;100.00;101145.03;5071981;28;20131;-79
2022/04/21 06:27:52;;;;;;;38.15;35.75;;;;;;;8.68;100.00;101130.84;5072133;28;20127;-80
2022/04/21 06:30:19;;;;;;;37.55;35.35;;;;;;;9.03;100.00;101136.41;5072766;28;20052;-80
2022/04/21 06:48:58;;;;;;;36.50;34.20;;;;;;;9.42;100.00;101144.00;5036652;28;20433;-90
2022/04/21 06:51:27;;;;;;;38.47;36.00;;;;;;;9.91;100.00;101139.75;5047906;28;20049;-90
2022/04/21 06:53:54;;;;;;;35.75;33.45;;;;;;;9.58;100.00;101146.38;5047943;28;20052;-88
2022/04/21 06:56:21;;;;;;;36.55;34.25;;;;;;;9.46;100.00;101150.53;5048193;28;20115;-90
2022/04/21 06:58:47;;;;;;;37.22;34.92;;;;;;;9.74;100.00;101145.34;5048402;28;20045;-90
2022/04/21 07:01:16;;;;;;;36.05;33.65;;;;;;;9.94;100.00;101142.03;5048223;28;20061;-89
2022/04/21 07:03:43;;;;;;;38.58;36.08;;;;;;;10.09;100.00;101142.78;5049570;28;20063;-89
2022/04/21 07:06:10;;;;;;;36.20;33.80;;;;;;;9.84;100.00;101132.56;5048379;28;20469;-89
2022/04/21 07:08:36;;;;;;;37.28;34.78;;;;;;;10.27;100.00;101137.00;5047555;28;20065;-89
2022/04/21 07:11:03;;;;;;;36.30;33.80;;;;;;;10.52;100.00;101122.25;5059177;28;20060;-90
2022/04/21 07:13:30;;;;;;;33.28;31.20;;;;;;;10.23;100.00;101135.75;5047970;28;20056;-89
2022/04/21 07:15:57;;;;;;;33.13;31.00;;;;;;;10.25;100.00;101128.38;5048369;28;20049;-89
2022/04/21 07:18:25;;;;;;;35.03;32.67;;;;;;;10.71;100.00;101123.41;5048105;28;20060;-89
2022/04/21 07:20:52;;;;;;;33.78;31.75;;;;;;;10.90;100.00;101129.81;5048302;28;20049;-90
2022/04/21 07:23:19;;;;;;;34.03;31.98;;;;;;;10.83;100.00;101128.13;5047928;28;20049;-88
2022/04/21 07:25:46;;;;;;;32.38;30.58;;;;;;;10.23;100.00;101139.22;5047981;28;20057;-88
2022/04/21 07:28:13;;;;;;;35.53;33.33;;;;;;;10.71;100.00;101135.84;5047384;28;20059;-88
2022/04/21 07:30:40;;;;;;;37.40;34.90;;;;;;;10.86;100.00;101133.06;5040584;28;20041;-88
2022/04/21 07:33:07;;;;;;;35.80;33.63;;;;;;;10.65;100.00;101126.00;5048829;28;20490;-89
2022/04/21 07:35:35;;;;;;;35.70;33.60;;;;;;;10.75;100.00;101123.81;5047591;28;20042;-88
2022/04/21 07:38:02;;;;;;;35.72;33.63;;;;;;;10.96;100.00;101113.09;5047280;28;20107;-88
2022/04/21 07:40:29;;;;;;;35.65;33.45;;;;;;;10.80;100.00;101108.09;5047055;28;20534;-88
2022/04/21 07:42:57;;;;;;;37.08;34.92;;;;;;;11.58;100.00;101111.19;5047260;28;20046;-88
2022/04/21 07:45:23;;;;;;;35.72;33.72;;;;;;;11.15;100.00;101116.81;5044116;28;20466;-88
2022/04/21 07:47:50;;;;;;;35.47;33.47;;;;;;;11.20;100.00;101105.59;5034510;28;20041;-88
2022/04/21 07:50:17;;;;;;;35.00;33.00;;;;;;;11.43;100.00;101105.22;5034103;28;20050;-90
2022/04/21 07:55:30;;;;;;;36.05;33.97;;;;;;;11.24;100.00;101096.19;5033796;28;20044;-88
2022/04/21 07:57:57;;;;;;;36.85;34.65;;;;;;;11.42;100.00;101099.09;5033486;28;20054;-89
2022/04/21 08:00:25;;;;;;;35.95;33.85;;;;;;;11.66;100.00;101099.53;5033641;28;20051;-88
2022/04/21 08:02:52;;;;;;;34.92;33.00;;;;;;;11.82;100.00;101083.16;5035083;28;20122;-89
2022/04/21 08:05:20;;;;;;;35.55;33.55;;;;;;;11.67;100.00;101095.84;5034066;28;20423;-88
2022/04/21 08:07:49;;;;;;;36.53;34.25;;;;;;;11.76;100.00;101091.16;5033880;28;20049;-89
2022/04/21 08:10:17;;;;;;;35.90;33.80;;;;;;;12.25;100.00;101096.03;5033643;28;20038;-88
2022/04/21 08:12:45;;;;;;;36.13;33.92;;;;;;;11.43;100.00;101091.94;5033921;28;20430;-89
2022/04/21 08:15:13;;;;;;;33.90;31.90;;;;;;;11.95;100.00;101098.31;5033477;28;20049;-89
2022/04/21 08:17:40;;;;;;;35.13;33.17;;;;;;;12.55;100.00;101095.56;5033476;28;20057;-90
2022/04/21 08:20:09;;;;;;;36.35;33.63;;;;;;;12.33;100.00;101089.69;5033434;28;20046;-90
2022/04/21 08:22:36;;;;;;;35.67;33.78;;;;;;;11.76;100.00;101083.97;5033585;28;20067;-89
2022/04/21 08:33:18;;;;;;;36.75;34.65;;;;;;;12.82;100.00;101075.78;5034276;28;20049;-89
2022/04/21 08:35:47;;;;;;;37.00;35.00;;;;;;;11.90;100.00;101083.00;5032795;28;20045;-89
2022/04/21 08:38:14;;;;;;;35.55;33.55;;;;;;;11.84;100.00;101069.66;5033005;28;20046;-89
2022/04/21 08:40:50;;;;;;;36.47;34.17;;;;;;;12.26;100.00;101071.06;5032917;28;20045;-88
2022/04/21 08:43:18;;;;;;;37.65;35.53;;;;;;;12.18;100.00;101081.94;5032798;28;20517;-89
2022/04/21 08:45:46;;;;;;;37.67;35.58;;;;;;;13.35;100.00;101079.25;5032601;28;20053;-88
2022/04/21 08:48:14;;;;;;;36.10;34.08;;;;;;;13.37;100.00;101080.66;5030607;28;20414;-89
2022/04/21 08:50:42;;;;;;;37.55;35.53;;;;;;;13.62;100.00;101079.88;5032873;28;20052;-87
2022/04/21 08:53:10;;;;;;;36.88;34.78;;;;;;;14.06;100.00;101072.72;5033011;28;20057;-89
2022/04/21 08:55:38;;;;;;;35.55;33.53;;;;;;;13.49;100.00;101075.44;5032668;28;20046;-89
2022/04/21 08:58:06;;;;;;;36.58;34.25;;;;;;;13.79;100.00;101066.81;5031524;28;20049;-89
2022/04/21 09:00:33;;;;;;;36.30;34.13;;;;;;;13.96;100.00;101071.38;5031893;28;20049;-89
2022/04/21 09:03:01;;;;;;;35.70;33.58;;;;;;;13.52;100.00;101067.00;5034286;28;20053;-89
2022/04/21 09:05:29;;;;;;;35.33;33.22;;;;;;;13.94;100.00;101067.28;5032519;28;20403;-88
2022/04/21 09:07:57;;;;;;;36.03;33.88;;;;;;;13.19;100.00;101068.03;5032582;28;20046;-88
2022/04/21 09:10:25;;;;;;;35.95;33.45;;;;;;;13.52;100.00;101064.34;5032508;28;20115;-89
2022/04/21 09:12:55;;;;;;;36.50;34.40;;;;;;;13.36;100.00;101056.88;5031381;28;20046;-89
2022/04/21 09:15:25;;;;;;;37.47;35.30;;;;;;;12.87;100.00;101055.69;5030133;28;20047;-89
2022/04/21 09:17:53;;;;;;;38.17;35.97;;;;;;;14.43;100.00;101052.19;5021483;28;20125;-89
2022/04/21 09:20:22;;;;;;;37.33;35.22;;;;;;;14.46;100.00;101056.25;5023196;28;20045;-89
2022/04/21 09:22:53;;;;;;;35.53;33.53;;;;;;;14.45;100.00;101058.13;5032278;28;20053;-89
2022/04/21 09:25:20;;;;;;;36.40;34.20;;;;;;;14.43;100.00;101054.84;5028231;28;20054;-89
2022/04/21 09:27:49;;;;;;;36.75;34.58;;;;;;;12.72;100.00;101042.63;5023799;28;20048;-89
2022/04/21 09:30:19;;;;;;;37.45;35.22;;;;;;;13.25;100.00;101051.19;5032512;28;20503;-90
2022/04/21 09:32:55;;;;;;;38.60;36.38;;;;;;;13.43;100.00;101058.44;5032675;28;20073;-88
2022/04/21 09:35:23;;;;;;;36.90;34.35;;;;;;;13.94;100.00;101056.59;5030108;28;20085;-88
2022/04/21 09:37:52;;;;;;;36.65;34.30;;;;;;;13.77;100.00;101055.50;5029834;28;20056;-88
2022/04/21 09:40:21;;;;;;;36.45;34.45;;;;;;;13.83;100.00;101058.16;5030251;28;20061;-88
2022/04/21 09:42:57;;;;;;;38.15;35.95;;;;;;;14.21;100.00;101054.47;5020262;28;20053;-88
2022/04/21 09:48:26;;;;;;;37.25;35.33;;;;;;;14.84;100.00;101043.47;5029280;28;20060;-90
2022/04/21 09:50:55;;;;;;;36.92;34.72;;;;;;;15.16;100.00;101039.75;5030490;28;20495;-89
2022/04/21 09:53:24;;;;;;;37.53;35.30;;;;;;;13.34;100.00;101043.72;5029391;28;20099;-89
2022/04/21 09:55:55;;;;;;;38.08;35.80;;;;;;;14.18;100.00;101039.72;5029649;28;20050;-88
2022/04/21 09:58:23;;;;;;;37.33;35.28;;;;;;;15.41;100.00;101034.25;5025386;28;20045;-89
2022/04/21 10:00:51;;;;;;;37.25;35.25;;;;;;;15.89;100.00;101035.97;5031005;28;20111;-88
2022/04/21 10:03:18;;;;;;;35.97;33.97;;;;;;;15.24;100.00;101021.53;5025024;28;20408;-87
2022/04/21 10:05:47;;;;;;;37.58;35.42;;;;;;;15.90;100.00;101024.19;5029088;28;20072;-88
2022/04/21 10:08:14;;;;;;;37.67;35.47;;;;;;;15.18;100.00;101033.13;5029665;28;20558;-88
2022/04/21 10:10:43;;;;;;;38.55;36.30;;;;;;;15.76;100.00;101029.78;5031174;28;20060;-89
2022/04/21 10:13:12;;;;;;;37.05;34.95;;;;;;;15.18;100.00;101025.09;5022086;28;20104;-89
2022/04/21 10:15:42;;;;;;;37.17;35.08;;;;;;;15.17;100.00;101028.84;5035635;28;20525;-89
2022/04/21 10:18:15;;;;;;;38.25;36.15;;;;;;;15.86;100.00;101025.72;5019176;28;20124;-89
2022/04/21 10:20:45;;;;;;;37.70;35.60;;;;;;;14.48;100.00;101027.47;5026055;28;20480;-86
2022/04/21 10:23:19;;;;;;;38.38;36.28;;;;;;;14.43;100.00;101036.16;5031460;28;20050;-88
2022/04/21 10:26:05;;;;;;;38.83;36.53;;;;;;;14.73;100.00;101025.53;5024846;28;20053;-87
2022/04/21 10:28:56;;;;;;;37.35;35.25;;;;;;;14.79;100.00;101029.16;5027836;28;20041;-88
2022/04/21 10:31:30;;;;;;;37.78;35.78;;;;;;;15.17;100.00;101018.13;5028007;28;20119;-88
2022/04/21 10:33:59;;;;;;;37.72;35.53;;;;;;;14.00;100.00;101017.53;5030166;28;20480;-87
2022/04/21 10:37:04;;;;;;;38.33;36.13;;;;;;;14.43;100.00;101028.13;5031175;28;20050;-89
2022/04/21 10:39:32;;;;;;;37.00;34.90;;;;;;;15.78;100.00;101026.84;5029588;28;20111;-86
2022/04/21 10:42:13;;;;;;;36.45;34.55;;;;;;;15.47;100.00;101020.75;5023239;28;20053;-88
2022/04/21 10:44:48;;;;;;;34.80;33.00;;;;;;;14.62;100.00;101021.78;5034027;28;20542;-87
2022/04/21 10:47:36;;;;;;;35.53;33.72;;;;;;;14.23;100.00;101027.56;5025209;28;20049;-89
2022/04/21 10:50:13;;;;;;;35.45;33.38;;;;;;;16.23;100.00;101019.03;5031338;28;20065;-88
2022/04/21 10:58:51;;;;;;;36.45;34.55;;;;;;;16.70;77.61;101013.53;5025483;28;20056;-88
2022/04/21 11:01:32;;;;;;;36.33;34.53;;;;;;;17.36;83.79;101024.63;5028651;28;20049;-89
2022/04/21 11:04:13;;;;;;;36.28;34.42;;;;;;;16.29;70.24;101014.59;5025871;28;20483;-89
2022/04/21 11:06:42;;;;;;;37.70;35.70;;;;;;;16.47;74.60;101022.47;5031639;28;20049;-89
2022/04/21 11:09:09;;;;;;;36.65;34.80;;;;;;;16.15;76.60;101015.88;5036954;28;20494;-89
2022/04/21 11:11:47;;;;;;;37.22;35.33;;;;;;;16.20;85.77;101016.00;5030736;28;20053;-89
2022/04/21 11:14:29;;;;;;;35.20;33.30;;;;;;;15.78;89.20;101016.16;5028678;28;20629;-89
2022/04/21 11:16:57;;;;;;;36.97;34.97;;;;;;;15.52;87.65;101007.50;5029188;28;20077;-89
2022/04/21 11:19:44;;;;;;;36.85;34.95;;;;;;;14.93;100.00;101011.09;5017372;28;20400;-89
2022/04/21 11:22:35;;;;;;;35.80;33.80;;;;;;;15.51;94.28;101013.06;5024426;28;20514;-89
2022/04/21 11:25:05;;;;;;;36.97;34.97;;;;;;;15.83;91.01;101018.16;5034386;28;20049;-90
2022/04/21 11:27:41;;;;;;;36.00;34.10;;;;;;;16.41;92.89;101004.66;5031598;28;20052;-88
2022/04/21 11:30:10;;;;;;;36.10;34.10;;;;;;;15.28;98.63;101008.50;5033126;28;20052;-89
2022/04/21 11:32:37;;;;;;;35.28;33.47;;;;;;;15.33;99.02;101000.59;5035237;28;20049;-87
2022/04/21 11:35:06;;;;;;;36.90;34.90;;;;;;;15.11;98.13;101003.00;5034802;28;20485;-89
2022/04/21 11:37:51;;;;;;;35.72;33.78;;;;;;;14.89;100.00;101005.38;5032748;28;20037;-90
2022/04/21 11:40:37;;;;;;;36.80;34.80;;;;;;;15.06;98.37;100992.97;5034565;28;20128;-89
2022/04/21 11:43:14;;;;;;;37.45;35.25;;;;;;;14.90;92.43;100977.59;5027212;28;20521;-89
2022/04/21 11:45:44;;;;;;;37.97;35.88;;;;;;;15.09;96.19;100978.31;5026360;28;20081;-89
2022/04/21 11:48:13;;;;;;;36.17;34.28;;;;;;;14.67;91.38;100975.63;5035354;28;20081;-89
2022/04/21 11:50:43;;;;;;;35.38;33.58;;;;;;;14.91;99.12;100962.34;5033987;28;20056;-89
2022/04/21 11:53:18;;;;;;;36.25;34.25;;;;;;;14.85;93.93;100962.22;5032038;28;20077;-89
2022/04/21 11:55:45;;;;;;;36.05;34.15;;;;;;;16.01;87.65;100961.75;5029510;28;20049;-89
2022/04/21 11:58:13;;;;;;;37.58;35.58;;;;;;;15.35;91.99;100953.03;5033911;28;20041;-88
2022/04/21 12:06:31;;;;;;;36.88;34.88;;;;;;;16.51;87.92;100946.91;5032703;28;20430;-89
2022/04/21 12:08:58;;;;;;;37.83;35.83;;;;;;;16.51;79.22;100945.03;5030699;28;20510;-89
2022/04/21 12:11:25;;;;;;;36.65;34.75;;;;;;;15.48;79.79;100943.94;5030318;28;20103;-89
2022/04/21 12:13:54;;;;;;;37.30;35.30;;;;;;;16.70;76.59;100949.16;5032902;28;20042;-88
2022/04/21 12:16:41;;;;;;;37.22;35.28;;;;;;;15.96;84.84;100956.28;5033798;28;20045;-89
2022/04/21 12:19:15;;;;;;;38.17;36.22;;;;;;;16.53;75.73;100942.13;5033360;28;20050;-88
2022/04/21 12:21:43;;;;;;;37.08;35.10;;;;;;;16.41;67.06;100926.09;5032667;28;20041;-87
2022/04/21 12:24:11;;;;;;;37.10;35.08;;;;;;;16.23;67.65;100932.44;5033183;28;20056;-89
2022/04/21 12:26:38;;;;;;;37.78;35.67;;;;;;;15.68;62.48;100932.91;5033106;28;20049;-88
2022/04/21 12:29:08;;;;;;;38.47;36.47;;;;;;;16.76;67.96;100933.19;5028825;28;20091;-89
2022/04/21 12:31:48;;;;;;;36.70;34.70;;;;;;;15.84;65.42;100942.91;5022948;28;20046;-89
2022/04/21 12:34:21;;;;;;;37.92;35.88;;;;;;;17.56;60.72;100942.78;5016690;28;20557;-89
2022/04/21 12:36:52;;;;;;;38.00;36.10;;;;;;;18.23;55.86;100931.06;5031863;28;20513;-88
2022/04/21 12:39:21;;;;;;;37.83;35.92;;;;;;;17.63;58.27;100930.00;5034648;28;20481;-88
2022/04/21 12:41:48;;;;;;;38.17;36.35;;;;;;;16.85;59.09;100931.72;5041340;28;20085;-87
2022/04/21 12:44:18;;;;;;;35.85;34.05;;;;;;;17.12;64.01;100935.41;5032949;28;20504;-88
2022/04/21 12:46:57;;;;;;;40.00;37.85;;;;;;;15.88;65.71;100924.50;5030292;28;20092;-88
2022/04/21 12:49:47;;;;;;;38.85;36.75;;;;;;;16.35;60.90;100921.69;5037788;28;20081;-87
2022/04/21 12:52:14;;;;;;;39.45;37.35;;;;;;;15.65;72.63;100915.44;5026715;28;20049;-88
2022/04/21 12:54:51;;;;;;;40.22;38.10;;;;;;;16.17;64.20;100906.59;5028724;28;20072;-86
2022/04/21 13:03:01;;;;;;;37.67;35.65;;;;;;;17.55;63.93;100900.88;5030319;28;20462;-90
2022/04/21 13:05:30;;;;;;;38.92;36.92;;;;;;;16.69;60.34;100893.09;5024808;28;20050;-87
2022/04/21 13:07:59;;;;;;;41.25;39.25;;;;;;;16.33;63.54;100905.03;5029602;28;20571;-90
2022/04/21 13:10:29;;;;;;;39.88;37.88;;;;;;;16.19;62.58;100913.34;5024485;28;20049;-88
2022/04/21 13:12:55;;;;;;;41.03;38.90;;;;;;;16.84;62.62;100905.97;5022863;28;20060;-88
2022/04/21 13:15:24;;;;;;;40.28;38.17;;;;;;;17.27;60.71;100912.56;5027119;28;20050;-89
2022/04/21 13:17:50;;;;;;;37.00;35.00;;;;;;;16.69;66.70;100909.16;5032287;28;20119;-89
2022/04/21 13:21:52;;;;;;;37.38;35.38;;;;;;;16.79;62.02;100901.31;5030280;28;20056;-87